Time;durP1;ratioP1;P1;durP2;ratioP2;P2;SDS_P1;SDS_P2;PMS_P1;PMS_P2;Temp;Humidity;BMP_temperature;BMP_pressure;BME280_temperature;BME280_humidity;BME280_pressure;Samples;Min_cycle;Max_cycle;Signal;HPM_P1;HPM_P2
2023/08/10 00:00:16;;;;;;;6.70;1.98;;;14.40;99.90;;;;;;5113941;28;20042;-57
2023/08/10 00:02:45;;;;;;;6.30;2.20;;;14.40;99.90;;;;;;5079432;28;20044;-59
2023/08/10 00:05:11;;;;;;;7.28;2.03;;;14.40;99.90;;;;;;5112486;28;20081;-54
2023/08/10 00:07:37;;;;;;;6.10;2.28;;;14.30;99.90;;;;;;5113262;28;20069;-55
2023/08/10 00:10:04;;;;;;;8.70;2.30;;;14.30;99.90;;;;;;5112291;28;20099;-58
2023/08/10 00:12:30;;;;;;;7.22;2.72;;;14.30;99.90;;;;;;5111769;28;20043;-59
2023/08/10 00:14:56;;;;;;;6.32;2.40;;;14.20;99.90;;;;;;5114191;28;20705;-56
2023/08/10 00:17:23;;;;;;;3.75;2.10;;;14.20;99.90;;;;;;5111675;28;20050;-58
2023/08/10 00:19:49;;;;;;;10.25;2.22;;;14.10;99.90;;;;;;5112453;28;20135;-57
2023/08/10 00:22:15;;;;;;;7.65;2.30;;;14.10;99.90;;;;;;5112257;28;20055;-59
2023/08/10 00:24:41;;;;;;;6.57;2.20;;;14.10;99.90;;;;;;5100250;28;20039;-57
2023/08/10 00:27:10;;;;;;;5.25;2.25;;;14.00;99.90;;;;;;5111617;28;20032;-57
2023/08/10 00:29:35;;;;;;;7.15;2.33;;;14.00;99.90;;;;;;5079264;27;20051;-57
2023/08/10 00:32:01;;;;;;;6.93;2.00;;;14.00;99.90;;;;;;5101316;28;20095;-59
2023/08/10 00:34:27;;;;;;;5.50;2.33;;;14.00;99.90;;;;;;5112086;28;20062;-59
2023/08/10 00:36:52;;;;;;;6.28;2.25;;;14.00;99.90;;;;;;5112185;28;20046;-57
2023/08/10 00:39:18;;;;;;;7.35;2.47;;;14.00;99.90;;;;;;5094881;28;20039;-58
2023/08/10 00:41:44;;;;;;;10.18;2.30;;;13.90;99.90;;;;;;5111373;28;20749;-55
2023/08/10 00:44:10;;;;;;;6.20;2.33;;;13.90;99.90;;;;;;5112857;28;20046;-56
2023/08/10 00:46:36;;;;;;;3.38;2.10;;;13.80;99.90;;;;;;5113659;28;20043;-59
2023/08/10 00:49:02;;;;;;;7.30;2.45;;;13.90;99.90;;;;;;5114038;28;20098;-57
2023/08/10 00:51:28;;;;;;;4.70;2.30;;;13.90;99.90;;;;;;5095144;28;20028;-56
2023/08/10 00:53:54;;;;;;;5.93;2.65;;;13.90;99.90;;;;;;5112663;28;20032;-59
2023/08/10 00:56:20;;;;;;;5.10;2.45;;;13.90;99.90;;;;;;5110783;28;20046;-55
2023/08/10 00:58:47;;;;;;;6.70;2.60;;;13.90;99.90;;;;;;5095007;28;20070;-56
2023/08/10 01:01:13;;;;;;;5.63;2.47;;;13.90;99.90;;;;;;5114198;28;20063;-58
2023/08/10 01:03:39;;;;;;;7.78;2.65;;;13.80;99.90;;;;;;5114755;28;20035;-58
2023/08/10 01:06:17;;;;;;;7.88;2.58;;;13.90;99.90;;;;;;5078575;28;20043;-57
2023/08/10 01:08:58;;;;;;;7.32;2.83;;;13.90;99.90;;;;;;5087129;28;20039;-55
2023/08/10 01:11:31;;;;;;;5.75;2.92;;;13.90;99.90;;;;;;5095909;28;20036;-58
2023/08/10 01:14:00;;;;;;;6.82;2.97;;;13.80;99.90;;;;;;5098439;28;20055;-57
2023/08/10 01:16:28;;;;;;;8.43;2.72;;;13.90;99.90;;;;;;5114587;28;20386;-57
2023/08/10 01:18:55;;;;;;;4.65;2.47;;;13.90;99.90;;;;;;5116561;28;20036;-57
2023/08/10 01:21:40;;;;;;;6.68;2.75;;;13.80;99.90;;;;;;5114819;28;20587;-58
2023/08/10 01:24:19;;;;;;;6.53;2.42;;;13.90;99.90;;;;;;5114909;28;20048;-58
2023/08/10 01:26:47;;;;;;;6.72;3.00;;;13.90;99.90;;;;;;5117380;28;20035;-56
2023/08/10 01:29:14;;;;;;;6.32;2.90;;;13.80;99.90;;;;;;5115621;28;20042;-58
2023/08/10 01:31:40;;;;;;;7.45;2.60;;;13.90;99.90;;;;;;5116548;27;20052;-56
2023/08/10 01:34:05;;;;;;;6.53;2.60;;;13.90;99.90;;;;;;5096031;28;20043;-58
2023/08/10 01:36:32;;;;;;;7.63;2.55;;;13.90;99.90;;;;;;5113581;28;20027;-58
2023/08/10 01:38:58;;;;;;;4.88;2.25;;;13.90;99.90;;;;;;5114341;28;20458;-58
2023/08/10 01:41:23;;;;;;;7.70;2.20;;;13.80;99.90;;;;;;5113268;28;20047;-59
2023/08/10 01:43:49;;;;;;;6.40;2.72;;;13.90;99.90;;;;;;5112331;28;20040;-56
2023/08/10 01:46:18;;;;;;;5.38;2.58;;;13.90;99.90;;;;;;5114358;28;20067;-54
2023/08/10 01:48:46;;;;;;;5.65;2.47;;;13.90;99.90;;;;;;5112990;28;20100;-57
2023/08/10 01:51:14;;;;;;;7.43;2.80;;;13.90;99.90;;;;;;5112440;28;20040;-58
2023/08/10 01:53:42;;;;;;;6.10;2.47;;;13.90;99.90;;;;;;5113820;28;20055;-58
2023/08/10 01:56:08;;;;;;;8.63;2.75;;;13.90;99.90;;;;;;5110830;28;20475;-56
2023/08/10 01:58:33;;;;;;;4.28;2.53;;;13.90;99.90;;;;;;5093186;28;20043;-58
2023/08/10 02:00:59;;;;;;;5.30;2.55;;;13.90;99.90;;;;;;5094704;28;20051;-58
2023/08/10 02:03:26;;;;;;;4.50;2.60;;;13.90;99.90;;;;;;5109122;28;20044;-58
2023/08/10 02:05:51;;;;;;;4.55;2.55;;;13.90;99.90;;;;;;5109750;28;20095;-54
2023/08/10 02:08:17;;;;;;;4.18;2.47;;;13.90;99.90;;;;;;5109684;28;20070;-57
2023/08/10 02:10:43;;;;;;;6.93;2.20;;;13.90;99.90;;;;;;5111314;28;20039;-56
2023/08/10 02:13:09;;;;;;;7.97;2.45;;;13.90;99.90;;;;;;5112686;28;20052;-58
2023/08/10 02:15:34;;;;;;;4.32;2.20;;;13.90;99.90;;;;;;5111491;28;20172;-56
2023/08/10 02:18:00;;;;;;;7.07;2.60;;;13.90;99.90;;;;;;5110549;28;20048;-59
2023/08/10 02:20:26;;;;;;;6.65;2.60;;;13.90;99.90;;;;;;5094168;28;20061;-56
2023/08/10 02:22:53;;;;;;;4.50;2.40;;;13.80;99.90;;;;;;5112358;28;20048;-58
2023/08/10 02:25:21;;;;;;;6.68;2.58;;;13.80;99.90;;;;;;5111930;28;20055;-56
2023/08/10 02:27:47;;;;;;;5.28;2.45;;;13.90;99.90;;;;;;5112369;28;20046;-58
2023/08/10 02:30:14;;;;;;;5.88;2.50;;;13.80;99.90;;;;;;5112816;28;20111;-56
2023/08/10 02:32:40;;;;;;;6.32;2.65;;;13.80;99.90;;;;;;5094055;28;20093;-57
2023/08/10 02:35:06;;;;;;;8.38;2.90;;;13.80;99.90;;;;;;5110482;28;20040;-58
2023/08/10 02:37:33;;;;;;;5.80;2.75;;;13.80;99.90;;;;;;5093106;28;20050;-57
2023/08/10 02:39:59;;;;;;;5.28;2.55;;;13.80;99.90;;;;;;5107552;28;20036;-57
2023/08/10 02:42:25;;;;;;;10.40;2.65;;;13.80;99.90;;;;;;5107646;28;20068;-59
2023/08/10 02:44:52;;;;;;;5.75;2.60;;;13.80;99.90;;;;;;5107296;28;20064;-58
2023/08/10 02:47:18;;;;;;;4.30;2.42;;;13.80;99.90;;;;;;5089345;28;20049;-56
2023/08/10 02:49:43;;;;;;;7.28;2.88;;;13.80;99.90;;;;;;5109257;28;20102;-57
2023/08/10 02:52:09;;;;;;;4.03;2.92;;;13.80;99.90;;;;;;5105930;28;20044;-58
2023/08/10 02:54:35;;;;;;;5.68;2.60;;;13.80;99.90;;;;;;5070484;28;20035;-58
2023/08/10 02:57:01;;;;;;;5.22;2.70;;;13.80;99.90;;;;;;5105140;28;20043;-56
2023/08/10 02:59:27;;;;;;;5.07;2.53;;;13.70;99.90;;;;;;5085548;28;20560;-58
2023/08/10 03:01:53;;;;;;;6.63;2.65;;;13.70;99.90;;;;;;5104996;28;20380;-58
2023/08/10 03:04:19;;;;;;;7.40;3.25;;;13.60;99.90;;;;;;5104544;28;20039;-57
2023/08/10 03:06:44;;;;;;;7.43;3.13;;;13.60;99.90;;;;;;5105344;28;20039;-58
2023/08/10 03:09:10;;;;;;;11.88;3.15;;;13.60;99.90;;;;;;5093802;28;20074;-57
2023/08/10 03:11:36;;;;;;;5.32;3.30;;;13.60;99.90;;;;;;5104979;28;20036;-59
2023/08/10 03:14:02;;;;;;;4.10;3.17;;;13.60;99.90;;;;;;5107083;28;20122;-56
2023/08/10 03:16:29;;;;;;;5.05;2.70;;;13.60;99.90;;;;;;5104864;28;20051;-58
2023/08/10 03:18:56;;;;;;;10.15;3.60;;;13.60;99.90;;;;;;5105021;28;20040;-56
2023/08/10 03:21:22;;;;;;;7.03;3.00;;;13.60;99.90;;;;;;5106578;28;20064;-56
2023/08/10 03:23:48;;;;;;;7.80;3.42;;;13.60;99.90;;;;;;5087626;28;20525;-58
2023/08/10 03:26:13;;;;;;;5.78;3.17;;;13.50;99.90;;;;;;5108668;28;20036;-58
2023/08/10 03:28:39;;;;;;;9.88;3.50;;;13.50;99.90;;;;;;5108668;28;20046;-59
2023/08/10 03:31:05;;;;;;;6.93;3.10;;;13.60;99.90;;;;;;5106798;28;20435;-58
2023/08/10 03:33:30;;;;;;;6.32;3.10;;;13.60;99.90;;;;;;5105917;28;20032;-58
2023/08/10 03:35:56;;;;;;;8.35;3.42;;;13.60;99.90;;;;;;5089610;28;20085;-58
2023/08/10 03:38:22;;;;;;;4.10;2.90;;;13.60;99.90;;;;;;5087916;28;20048;-59
2023/08/10 03:40:48;;;;;;;5.93;2.97;;;13.60;99.90;;;;;;5109789;28;20036;-53
2023/08/10 03:43:14;;;;;;;8.93;3.00;;;13.60;99.90;;;;;;5106821;28;20040;-59
2023/08/10 03:45:39;;;;;;;6.18;2.90;;;13.60;99.90;;;;;;5106811;28;20043;-58
2023/08/10 03:48:05;;;;;;;6.75;2.78;;;13.60;99.90;;;;;;5105673;28;20772;-59
2023/08/10 03:50:31;;;;;;;7.85;2.95;;;13.60;99.90;;;;;;5105641;28;20569;-58
2023/08/10 03:52:56;;;;;;;6.72;3.00;;;13.60;99.90;;;;;;5109595;28;20062;-58
2023/08/10 03:55:22;;;;;;;7.72;3.10;;;13.60;99.90;;;;;;5107497;28;20407;-58
2023/08/10 03:57:48;;;;;;;7.30;3.22;;;13.70;99.90;;;;;;5106482;28;20079;-58
2023/08/10 04:00:14;;;;;;;7.22;3.03;;;13.70;99.90;;;;;;5087924;28;20040;-58
2023/08/10 04:02:40;;;;;;;8.98;3.25;;;13.70;99.90;;;;;;5103122;28;20040;-57
2023/08/10 04:05:07;;;;;;;10.23;3.03;;;13.70;99.90;;;;;;5107389;28;20055;-57
2023/08/10 04:07:37;;;;;;;7.53;3.40;;;13.70;99.90;;;;;;5107937;28;20036;-56
2023/08/10 04:10:07;;;;;;;7.05;3.10;;;13.70;99.90;;;;;;5107466;28;20424;-58
2023/08/10 04:12:36;;;;;;;7.22;2.95;;;13.80;99.90;;;;;;5105874;28;20466;-58
2023/08/10 04:15:03;;;;;;;9.20;2.63;;;13.80;99.90;;;;;;5110891;28;20039;-59
2023/08/10 04:17:29;;;;;;;5.25;2.75;;;13.80;99.90;;;;;;5107754;28;20048;-56
2023/08/10 04:19:56;;;;;;;9.15;3.05;;;13.80;99.90;;;;;;5109182;28;20123;-59
2023/08/10 04:22:23;;;;;;;5.30;2.80;;;13.80;99.90;;;;;;5109218;28;20047;-58
2023/08/10 04:24:49;;;;;;;3.70;2.40;;;13.90;99.90;;;;;;5108794;28;21477;-58
2023/08/10 04:27:16;;;;;;;7.60;3.20;;;13.80;99.90;;;;;;5089343;28;20032;-59
2023/08/10 04:29:46;;;;;;;7.85;3.13;;;13.80;99.90;;;;;;5107839;28;20044;-54
2023/08/10 04:32:13;;;;;;;8.23;2.90;;;13.90;99.90;;;;;;5109391;28;20044;-56
2023/08/10 04:34:39;;;;;;;5.68;2.80;;;13.90;99.90;;;;;;5108828;28;20043;-58
2023/08/10 04:37:05;;;;;;;6.82;3.15;;;13.90;99.90;;;;;;5111834;28;20042;-59
2023/08/10 04:39:32;;;;;;;8.80;3.30;;;13.90;99.90;;;;;;5112263;28;20048;-58
2023/08/10 04:41:58;;;;;;;6.88;3.00;;;13.90;99.90;;;;;;5111616;28;20047;-58
2023/08/10 04:44:24;;;;;;;7.40;3.10;;;13.90;99.90;;;;;;5091568;28;20131;-58
2023/08/10 04:46:50;;;;;;;5.10;2.75;;;13.90;99.90;;;;;;5111196;28;20035;-58
2023/08/10 04:49:16;;;;;;;13.75;3.13;;;13.90;99.90;;;;;;5093993;28;20092;-58
2023/08/10 04:51:42;;;;;;;5.30;2.90;;;14.00;99.90;;;;;;5109255;28;20087;-58
2023/08/10 04:54:11;;;;;;;5.35;2.80;;;14.00;99.90;;;;;;5110982;28;20044;-57
2023/08/10 04:56:37;;;;;;;7.90;2.95;;;14.00;99.90;;;;;;5110595;28;20115;-59
2023/08/10 04:59:03;;;;;;;7.57;3.47;;;14.00;99.90;;;;;;5110424;28;20045;-58
2023/08/10 05:01:29;;;;;;;6.22;3.35;;;14.00;99.90;;;;;;5110829;27;20107;-59
2023/08/10 05:03:55;;;;;;;8.18;3.38;;;14.00;99.90;;;;;;5092115;28;20040;-56
2023/08/10 05:06:21;;;;;;;12.20;4.00;;;14.00;99.90;;;;;;5093707;28;20044;-57
2023/08/10 05:08:47;;;;;;;8.57;3.50;;;14.10;99.90;;;;;;5109014;28;20481;-58
2023/08/10 05:11:13;;;;;;;6.20;3.75;;;14.10;99.90;;;;;;5091722;28;20042;-57
2023/08/10 05:13:40;;;;;;;7.40;3.50;;;14.10;99.90;;;;;;5099600;28;20048;-58
2023/08/10 05:16:05;;;;;;;9.77;3.92;;;14.10;99.90;;;;;;5110009;28;20040;-57
2023/08/10 05:18:31;;;;;;;11.73;3.63;;;14.10;99.90;;;;;;5113578;28;20056;-58
2023/08/10 05:21:01;;;;;;;8.13;3.63;;;14.20;99.90;;;;;;5112175;28;20035;-56
2023/08/10 05:23:27;;;;;;;6.57;3.33;;;14.20;99.90;;;;;;5111892;27;20101;-56
2023/08/10 05:25:53;;;;;;;9.60;3.83;;;14.20;99.90;;;;;;5113439;28;20044;-58
2023/08/10 05:28:18;;;;;;;7.07;3.10;;;14.20;99.90;;;;;;5110063;28;20036;-58
2023/08/10 05:30:44;;;;;;;8.73;3.60;;;14.30;99.90;;;;;;5095559;28;20108;-58
2023/08/10 05:33:10;;;;;;;8.65;3.38;;;14.30;99.90;;;;;;5110263;28;20456;-58
2023/08/10 05:35:36;;;;;;;6.88;3.30;;;14.40;99.90;;;;;;5111336;28;20043;-56
2023/08/10 05:38:06;;;;;;;5.63;3.47;;;14.40;99.90;;;;;;5109827;28;20103;-58
2023/08/10 05:40:47;;;;;;;11.38;3.40;;;14.30;99.90;;;;;;5111079;28;20052;-59
2023/08/10 05:43:13;;;;;;;5.80;2.97;;;14.40;99.90;;;;;;5109237;28;20056;-57
2023/08/10 05:45:39;;;;;;;7.35;3.70;;;14.50;99.90;;;;;;5112163;28;20051;-57
2023/08/10 05:48:12;;;;;;;8.18;3.17;;;14.50;99.90;;;;;;5108951;28;20582;-59
2023/08/10 05:50:38;;;;;;;8.55;3.45;;;14.60;99.90;;;;;;5097976;28;20040;-58
2023/08/10 05:53:05;;;;;;;9.10;3.15;;;14.60;99.90;;;;;;5113504;28;20097;-59
2023/08/10 05:55:30;;;;;;;9.52;3.03;;;14.60;99.90;;;;;;5110555;28;20044;-59
2023/08/10 05:57:56;;;;;;;7.60;3.10;;;14.60;99.90;;;;;;5092971;28;20070;-58
2023/08/10 06:00:22;;;;;;;7.65;3.30;;;14.60;99.90;;;;;;5095176;27;20052;-57
2023/08/10 06:02:48;;;;;;;11.18;3.20;;;14.60;99.90;;;;;;5109473;28;20036;-57
2023/08/10 06:05:14;;;;;;;10.07;3.45;;;14.60;99.90;;;;;;5111522;28;20069;-58
2023/08/10 06:07:41;;;;;;;6.03;3.15;;;14.60;99.90;;;;;;5109987;28;20044;-58
2023/08/10 06:10:07;;;;;;;8.45;3.38;;;14.60;99.90;;;;;;5108680;28;20139;-58
2023/08/10 06:12:33;;;;;;;8.57;2.97;;;14.60;99.90;;;;;;5113679;28;20040;-58
2023/08/10 06:14:59;;;;;;;10.85;3.05;;;14.50;99.90;;;;;;5092308;28;20065;-57
2023/08/10 06:17:26;;;;;;;5.88;3.05;;;14.60;99.90;;;;;;5110487;28;20055;-55
2023/08/10 06:19:52;;;;;;;5.28;3.08;;;14.60;99.90;;;;;;5109150;28;20040;-58
2023/08/10 06:22:19;;;;;;;5.95;3.00;;;14.60;99.90;;;;;;5110416;28;20121;-57
2023/08/10 06:24:45;;;;;;;6.18;3.00;;;14.60;99.90;;;;;;5111822;28;20047;-58
2023/08/10 06:27:11;;;;;;;7.30;2.90;;;14.70;99.90;;;;;;5110712;28;20028;-58
2023/08/10 06:29:37;;;;;;;2.85;2.35;;;14.70;99.90;;;;;;5082966;28;20059;-59
2023/08/10 06:32:09;;;;;;;8.90;2.95;;;14.80;99.90;;;;;;5110301;28;20035;-57
2023/08/10 06:34:35;;;;;;;;;;;14.90;99.90;;;;;;5109653;28;20043;-59
2023/08/10 06:37:01;;;;;;;7.38;2.92;;;14.90;99.90;;;;;;5110715;27;20379;-57
2023/08/10 06:39:27;;;;;;;7.70;3.28;;;15.00;99.90;;;;;;5108746;28;20039;-58
2023/08/10 06:41:53;;;;;;;7.00;2.90;;;15.00;99.90;;;;;;5108924;28;20051;-54
2023/08/10 06:44:20;;;;;;;10.13;3.20;;;15.20;99.90;;;;;;5110147;28;20073;-58
2023/08/10 06:46:45;;;;;;;7.25;2.53;;;15.20;99.90;;;;;;5110459;28;20055;-57
2023/08/10 06:49:11;;;;;;;8.90;2.97;;;15.30;99.90;;;;;;5111100;28;20043;-58
2023/08/10 06:51:37;;;;;;;14.35;2.90;;;15.40;99.90;;;;;;5078699;28;20498;-58
2023/08/10 06:54:03;;;;;;;6.93;2.50;;;15.50;99.90;;;;;;5107358;28;20040;-58
2023/08/10 06:56:29;;;;;;;10.65;2.72;;;15.60;99.90;;;;;;5081282;28;20043;-58
2023/08/10 06:58:55;;;;;;;9.02;2.83;;;15.70;99.90;;;;;;5108760;28;20040;-58
2023/08/10 07:01:21;;;;;;;8.10;2.50;;;15.80;99.90;;;;;;5108113;28;20040;-57
2023/08/10 07:03:46;;;;;;;6.25;2.72;;;15.90;99.90;;;;;;5111396;28;20044;-54
2023/08/10 07:06:12;;;;;;;5.47;2.03;;;16.00;99.90;;;;;;5108840;28;20044;-58
2023/08/10 07:08:39;;;;;;;7.80;2.17;;;16.10;99.90;;;;;;5089560;28;20036;-57
2023/08/10 07:11:05;;;;;;;3.83;1.83;;;16.20;99.90;;;;;;5107477;28;20055;-56
2023/08/10 07:13:31;;;;;;;5.50;2.13;;;16.30;99.90;;;;;;5092612;28;20069;-58
2023/08/10 07:15:57;;;;;;;6.55;2.25;;;16.40;99.90;;;;;;5110953;28;20050;-57
2023/08/10 07:18:23;;;;;;;7.30;2.22;;;16.50;99.90;;;;;;5110520;28;20047;-58
2023/08/10 07:20:49;;;;;;;5.53;2.20;;;16.60;99.90;;;;;;5111289;28;20032;-57
2023/08/10 07:23:17;;;;;;;7.50;2.28;;;16.70;99.90;;;;;;5111913;28;20048;-57
2023/08/10 07:25:45;;;;;;;5.40;1.88;;;16.80;99.90;;;;;;5110679;28;20040;-57
2023/08/10 07:28:11;;;;;;;5.38;1.88;;;16.90;99.90;;;;;;5091466;28;20099;-58
2023/08/10 07:30:37;;;;;;;8.32;2.10;;;17.00;99.90;;;;;;5111332;28;20063;-58
2023/08/10 07:33:03;;;;;;;4.65;1.90;;;17.10;99.90;;;;;;5109290;28;20551;-57
2023/08/10 07:35:29;;;;;;;5.40;1.95;;;17.20;99.90;;;;;;5111935;28;20119;-58
2023/08/10 07:37:55;;;;;;;8.40;1.80;;;17.30;99.90;;;;;;5108539;28;20116;-56
2023/08/10 07:40:21;;;;;;;6.03;2.05;;;17.50;99.90;;;;;;5113255;28;20051;-58
2023/08/10 07:42:46;;;;;;;4.25;1.73;;;17.60;99.90;;;;;;5115386;28;20120;-58
2023/08/10 07:45:12;;;;;;;7.28;1.67;;;17.80;99.90;;;;;;5112572;28;20036;-57
2023/08/10 07:47:38;;;;;;;5.90;1.80;;;17.90;99.90;;;;;;5113840;28;20070;-59
2023/08/10 07:50:05;;;;;;;7.30;1.75;;;18.10;99.90;;;;;;5113118;28;20036;-58
2023/08/10 07:52:31;;;;;;;5.40;1.90;;;18.20;99.90;;;;;;5108346;28;20055;-59
2023/08/10 07:54:57;;;;;;;6.55;1.88;;;18.40;99.90;;;;;;5109132;27;20096;-56
2023/08/10 07:57:23;;;;;;;4.22;1.30;;;18.50;99.90;;;;;;5109061;28;20071;-58
2023/08/10 07:59:48;;;;;;;5.05;1.42;;;18.60;99.90;;;;;;5108713;28;20044;-56
2023/08/10 08:02:15;;;;;;;5.40;1.65;;;18.70;99.90;;;;;;5080624;28;20071;-57
2023/08/10 08:04:40;;;;;;;15.75;1.98;;;18.70;99.90;;;;;;5108602;28;20031;-59
2023/08/10 08:07:06;;;;;;;8.05;1.73;;;18.80;99.90;;;;;;5108181;28;20054;-58
2023/08/10 08:09:32;;;;;;;5.07;1.30;;;18.80;99.90;;;;;;5107181;28;20040;-59
2023/08/10 08:11:57;;;;;;;5.93;1.55;;;18.80;99.90;;;;;;5106421;28;20123;-59
2023/08/10 08:14:23;;;;;;;8.35;1.40;;;18.80;99.90;;;;;;5108503;28;20048;-59
2023/08/10 08:16:49;;;;;;;5.07;1.45;;;18.80;99.90;;;;;;5105517;28;20055;-58
2023/08/10 08:19:14;;;;;;;7.63;1.48;;;18.80;99.90;;;;;;5107699;28;20497;-59
2023/08/10 08:21:40;;;;;;;4.97;1.40;;;18.90;99.90;;;;;;5109092;28;20051;-58
2023/08/10 08:24:07;;;;;;;4.78;1.25;;;18.90;99.90;;;;;;5109223;28;20075;-59
2023/08/10 08:26:33;;;;;;;6.97;1.65;;;18.90;99.90;;;;;;5106674;28;20113;-58
2023/08/10 08:28:59;;;;;;;4.85;1.50;;;18.90;99.90;;;;;;5106673;28;20043;-59
2023/08/10 08:31:26;;;;;;;3.97;1.30;;;18.90;99.90;;;;;;5108414;27;20042;-59
2023/08/10 08:33:52;;;;;;;8.25;1.27;;;18.90;99.90;;;;;;5106189;28;20055;-58
2023/08/10 08:36:18;;;;;;;3.33;1.40;;;19.00;99.90;;;;;;5105774;28;20044;-59
2023/08/10 08:38:44;;;;;;;6.72;1.00;;;19.00;99.90;;;;;;5108901;28;20508;-56
2023/08/10 08:41:10;;;;;;;3.17;1.30;;;19.00;99.90;;;;;;5106106;28;20169;-58
2023/08/10 08:43:38;;;;;;;5.20;1.30;;;18.90;99.90;;;;;;5106439;28;20044;-59
2023/08/10 08:46:04;;;;;;;2.83;1.00;;;18.90;99.90;;;;;;5107333;28;20414;-59
2023/08/10 08:48:30;;;;;;;4.05;1.10;;;19.00;99.90;;;;;;5107771;28;20032;-58
2023/08/10 08:50:57;;;;;;;3.50;1.20;;;19.00;99.90;;;;;;5106184;28;20162;-55
2023/08/10 08:53:24;;;;;;;4.10;1.00;;;19.00;99.90;;;;;;5106504;28;20607;-59
2023/08/10 08:55:50;;;;;;;4.95;1.40;;;19.00;99.90;;;;;;5106491;27;20095;-58
2023/08/10 08:58:17;;;;;;;4.32;1.50;;;19.10;99.90;;;;;;5107648;28;20089;-55
2023/08/10 09:00:54;;;;;;;4.32;1.60;;;19.20;99.90;;;;;;5104347;28;20048;-59
2023/08/10 09:03:24;;;;;;;3.05;1.40;;;19.20;99.90;;;;;;5104382;28;20124;-59
2023/08/10 09:05:50;;;;;;;2.67;1.55;;;19.20;99.90;;;;;;5107226;28;20067;-57
2023/08/10 09:08:18;;;;;;;2.50;1.45;;;19.30;99.90;;;;;;5106804;28;20044;-59
2023/08/10 09:10:47;;;;;;;4.10;1.45;;;19.30;99.90;;;;;;5105191;28;20031;-57
2023/08/10 09:13:19;;;;;;;5.15;1.20;;;19.50;99.90;;;;;;5105321;28;20046;-58
2023/08/10 09:15:45;;;;;;;3.33;1.38;;;19.60;99.90;;;;;;5106519;28;20584;-58
2023/08/10 09:18:11;;;;;;;4.28;1.23;;;19.70;99.90;;;;;;5105034;28;20067;-59
2023/08/10 09:20:37;;;;;;;6.28;1.38;;;19.80;99.90;;;;;;5095714;28;20043;-58
2023/08/10 09:23:03;;;;;;;4.85;1.02;;;19.80;99.90;;;;;;5106143;28;20036;-59
2023/08/10 09:25:43;;;;;;;4.35;1.38;;;19.90;99.90;;;;;;5106242;28;20059;-58
2023/08/10 09:28:10;;;;;;;4.13;1.30;;;20.00;99.90;;;;;;5089072;28;20040;-59
2023/08/10 09:30:37;;;;;;;6.00;1.30;;;20.10;99.90;;;;;;5107912;28;20118;-59
2023/08/10 09:33:03;;;;;;;8.43;1.50;;;20.10;99.90;;;;;;5108231;28;20145;-55
2023/08/10 09:35:30;;;;;;;5.28;1.30;;;20.10;99.90;;;;;;5107593;28;20071;-58
2023/08/10 09:38:01;;;;;;;2.92;1.05;;;20.20;99.90;;;;;;5104765;28;20047;-59
2023/08/10 09:40:27;;;;;;;3.53;1.17;;;20.20;99.90;;;;;;5108657;28;20541;-56
2023/08/10 09:42:53;;;;;;;3.35;1.10;;;20.20;99.90;;;;;;5106516;28;20122;-59
2023/08/10 09:45:19;;;;;;;3.53;1.20;;;20.20;99.90;;;;;;5089657;28;20047;-58
2023/08/10 09:47:45;;;;;;;3.08;1.08;;;20.20;99.90;;;;;;5108547;28;20036;-57
2023/08/10 09:50:16;;;;;;;3.53;1.17;;;20.20;99.90;;;;;;5105977;28;20036;-59
2023/08/10 09:52:43;;;;;;;2.42;0.95;;;20.20;99.90;;;;;;5107096;27;20035;-57
2023/08/10 09:55:10;;;;;;;4.53;1.00;;;20.20;99.90;;;;;;5087899;28;20051;-57
2023/08/10 09:57:43;;;;;;;2.35;1.00;;;20.30;99.90;;;;;;5106236;28;20036;-59
2023/08/10 10:00:16;;;;;;;6.00;1.20;;;20.30;99.90;;;;;;5090156;28;20028;-57
2023/08/10 10:02:42;;;;;;;2.00;0.90;;;20.40;99.70;;;;;;5108479;28;20062;-59
2023/08/10 10:05:11;;;;;;;2.70;1.02;;;20.40;99.50;;;;;;5095668;28;20032;-59
2023/08/10 10:07:38;;;;;;;4.70;1.23;;;20.40;99.40;;;;;;5107755;28;20047;-59
2023/08/10 10:10:08;;;;;;;3.50;1.35;;;20.40;99.40;;;;;;5107837;28;20087;-58
2023/08/10 10:12:35;;;;;;;4.40;1.20;;;20.40;99.50;;;;;;5106958;28;20039;-58
2023/08/10 10:15:01;;;;;;;5.50;1.23;;;20.50;99.70;;;;;;5110432;28;20040;-59
2023/08/10 10:17:27;;;;;;;2.92;0.90;;;20.50;99.30;;;;;;5106995;28;20062;-60
2023/08/10 10:19:53;;;;;;;3.38;1.05;;;20.60;99.20;;;;;;5090487;28;20044;-58
2023/08/10 10:22:20;;;;;;;4.40;1.25;;;20.60;99.40;;;;;;5108210;28;20112;-58
2023/08/10 10:24:47;;;;;;;2.42;0.95;;;20.70;99.50;;;;;;5106852;28;20066;-56
2023/08/10 10:27:13;;;;;;;5.93;1.38;;;20.70;99.50;;;;;;5107119;28;20047;-55
2023/08/10 10:29:56;;;;;;;7.93;1.50;;;20.60;99.40;;;;;;5109655;27;20068;-59
2023/08/10 10:32:22;;;;;;;2.90;1.05;;;20.50;99.40;;;;;;5108012;28;20036;-57
2023/08/10 10:34:51;;;;;;;4.80;1.30;;;20.40;99.50;;;;;;5107146;28;20394;-59
2023/08/10 10:37:35;;;;;;;6.88;1.48;;;20.40;99.50;;;;;;5108461;28;20054;-57
2023/08/10 10:40:15;;;;;;;3.00;1.08;;;20.40;99.70;;;;;;5090723;28;20119;-56
2023/08/10 10:43:03;;;;;;;2.42;1.10;;;20.40;99.40;;;;;;5109509;28;20083;-57
2023/08/10 10:45:33;;;;;;;4.28;1.83;;;20.50;99.90;;;;;;5108346;28;20035;-60
2023/08/10 10:47:59;;;;;;;3.45;1.23;;;20.60;99.80;;;;;;5097147;28;20066;-59
2023/08/10 10:50:29;;;;;;;5.20;1.30;;;20.80;99.70;;;;;;5104470;28;20469;-58
2023/08/10 10:52:56;;;;;;;2.97;1.20;;;21.00;99.50;;;;;;5103960;28;20039;-58
2023/08/10 10:55:27;;;;;;;2.08;1.00;;;21.20;99.80;;;;;;5106295;28;20047;-58
2023/08/10 10:57:54;;;;;;;3.05;1.25;;;21.40;99.80;;;;;;5106583;28;20035;-58
2023/08/10 11:00:22;;;;;;;4.72;1.25;;;21.60;99.30;;;;;;5106429;28;20043;-57
2023/08/10 11:02:49;;;;;;;5.18;1.45;;;21.60;98.70;;;;;;5107840;28;20135;-59
2023/08/10 11:05:17;;;;;;;3.47;1.40;;;21.60;98.40;;;;;;5105764;28;20040;-60
2023/08/10 11:07:45;;;;;;;4.30;1.38;;;21.60;98.40;;;;;;5087126;28;20073;-58
2023/08/10 11:10:11;;;;;;;4.95;1.27;;;21.70;98.40;;;;;;5105077;28;20080;-59
2023/08/10 11:12:38;;;;;;;5.93;1.50;;;21.80;98.20;;;;;;5104972;28;20158;-59
2023/08/10 11:15:09;;;;;;;8.77;1.25;;;21.90;97.90;;;;;;5107305;28;20106;-54
2023/08/10 11:17:36;;;;;;;4.40;1.20;;;21.90;97.90;;;;;;5108498;28;20055;-59
2023/08/10 11:20:14;;;;;;;4.00;1.35;;;21.90;98.00;;;;;;5108196;28;20083;-59
2023/08/10 11:22:47;;;;;;;3.65;1.65;;;22.00;98.20;;;;;;5109880;28;20043;-59
2023/08/10 11:25:15;;;;;;;10.10;1.48;;;22.00;98.20;;;;;;5108927;28;20059;-59
2023/08/10 11:27:43;;;;;;;2.33;1.20;;;22.00;98.50;;;;;;5089424;28;20120;-59
2023/08/10 11:30:13;;;;;;;5.22;1.40;;;22.10;98.60;;;;;;5073255;28;20043;-57
2023/08/10 11:32:44;;;;;;;5.72;1.60;;;22.20;98.00;;;;;;5107929;28;20036;-58
2023/08/10 11:35:11;;;;;;;4.53;1.60;;;22.10;97.60;;;;;;5107800;28;20040;-56
2023/08/10 11:37:39;;;;;;;3.15;1.38;;;22.10;97.50;;;;;;5090533;28;20059;-58
2023/08/10 11:40:19;;;;;;;3.53;1.50;;;22.10;97.00;;;;;;5106924;28;20027;-59
2023/08/10 11:43:11;;;;;;;4.25;1.27;;;22.10;97.20;;;;;;5106610;28;20036;-59
2023/08/10 11:45:38;;;;;;;4.57;1.50;;;22.10;96.80;;;;;;5107320;28;20169;-58
2023/08/10 11:48:11;;;;;;;5.35;1.70;;;22.10;96.90;;;;;;5109147;28;20032;-57
2023/08/10 11:50:39;;;;;;;4.50;1.20;;;22.10;96.50;;;;;;5107819;28;20040;-57
2023/08/10 11:53:15;;;;;;;5.03;1.30;;;22.10;96.70;;;;;;5104894;28;20099;-59
2023/08/10 11:55:43;;;;;;;6.88;1.58;;;22.10;96.60;;;;;;5105935;28;20091;-59
2023/08/10 11:58:09;;;;;;;4.90;1.48;;;22.00;96.50;;;;;;5104961;27;20038;-58
2023/08/10 12:00:38;;;;;;;4.30;1.33;;;22.00;96.50;;;;;;5105300;28;20127;-55
2023/08/10 12:03:09;;;;;;;3.67;1.77;;;21.90;97.00;;;;;;5107937;28;20474;-58
2023/08/10 12:05:36;;;;;;;6.68;2.03;;;21.90;97.20;;;;;;5107604;28;20087;-59
2023/08/10 12:08:06;;;;;;;4.47;1.63;;;21.90;97.20;;;;;;5104940;28;20509;-59
2023/08/10 12:11:00;;;;;;;7.15;1.60;;;21.90;97.20;;;;;;5107498;28;20039;-57
2023/08/10 12:13:26;;;;;;;7.32;1.63;;;21.90;97.40;;;;;;5098892;28;20056;-59
2023/08/10 12:15:54;;;;;;;8.10;1.80;;;22.00;97.70;;;;;;5107743;28;20139;-59
2023/08/10 12:18:22;;;;;;;4.47;1.80;;;21.90;97.60;;;;;;5108491;28;20054;-58
2023/08/10 12:20:50;;;;;;;7.25;2.35;;;22.00;97.40;;;;;;5108868;28;20116;-56
2023/08/10 12:23:17;;;;;;;3.88;1.98;;;22.00;97.10;;;;;;5107190;28;20074;-59
2023/08/10 12:25:47;;;;;;;6.32;1.85;;;21.90;97.10;;;;;;5106005;28;20080;-59
2023/08/10 12:28:15;;;;;;;9.40;2.10;;;21.80;97.20;;;;;;5106591;28;20341;-58
2023/08/10 12:30:41;;;;;;;5.28;2.00;;;21.70;97.50;;;;;;5108038;28;20040;-58
2023/08/10 12:33:09;;;;;;;8.85;2.42;;;21.60;97.80;;;;;;5088954;28;20120;-59
2023/08/10 12:35:35;;;;;;;6.18;2.13;;;21.60;98.20;;;;;;5105020;28;20519;-58
2023/08/10 12:38:03;;;;;;;5.60;2.28;;;21.50;98.20;;;;;;5105115;28;20047;-57
2023/08/10 12:40:29;;;;;;;7.63;2.40;;;21.50;98.40;;;;;;5108489;28;20074;-59
2023/08/10 12:42:55;;;;;;;8.38;2.55;;;21.40;98.90;;;;;;5107264;28;20133;-57
2023/08/10 12:45:22;;;;;;;5.95;2.15;;;21.40;98.70;;;;;;5081375;28;20048;-56